createdAt,value
2018-10-16T00:00:58.449Z,14.20
2018-10-16T00:03:26.999Z,14.19
2018-10-16T00:05:55.409Z,14.17
2018-10-16T00:08:23.769Z,14.20
2018-10-16T00:10:52.249Z,14.22
2018-10-16T00:13:20.636Z,14.31
2018-10-16T00:15:49.216Z,14.43
2018-10-16T00:18:17.629Z,14.54
2018-10-16T00:20:46.097Z,14.63
2018-10-16T00:23:14.454Z,14.71
2018-10-16T00:25:42.867Z,14.76
2018-10-16T00:28:11.253Z,14.79
2018-10-16T00:30:40.121Z,14.82
2018-10-16T00:33:08.666Z,14.82
2018-10-16T00:35:37.077Z,14.78
2018-10-16T00:38:05.659Z,14.75
2018-10-16T00:40:34.092Z,14.74
2018-10-16T00:43:03.097Z,14.76
2018-10-16T00:45:31.589Z,14.77
2018-10-16T00:47:59.887Z,14.78
2018-10-16T00:53:01.941Z,14.79
2018-10-16T00:55:30.263Z,14.82
2018-10-16T00:57:58.639Z,14.87
2018-10-16T01:00:27.208Z,14.90
2018-10-16T01:02:55.492Z,14.88
2018-10-16T01:05:23.779Z,14.90
2018-10-16T01:07:52.339Z,14.90
2018-10-16T01:10:20.626Z,14.90
2018-10-16T01:12:49.030Z,14.93
2018-10-16T01:15:17.411Z,14.97
2018-10-16T01:17:45.874Z,14.96
2018-10-16T01:20:14.758Z,15.00
2018-10-16T01:22:43.765Z,15.02
2018-10-16T01:25:12.990Z,15.02
2018-10-16T01:27:41.466Z,15.04
2018-10-16T01:30:10.135Z,15.04
2018-10-16T01:32:39.029Z,15.03
2018-10-16T01:35:09.166Z,15.02
2018-10-16T01:37:37.614Z,15.01
2018-10-16T01:40:07.764Z,14.98
2018-10-16T01:42:36.183Z,14.97
2018-10-16T01:45:04.665Z,14.92
2018-10-16T01:47:33.148Z,14.90
2018-10-16T01:50:01.522Z,14.90
2018-10-16T01:52:29.932Z,14.86
2018-10-16T01:54:58.400Z,14.85
2018-10-16T01:57:26.844Z,14.79
2018-10-16T01:59:55.245Z,14.64
2018-10-16T02:02:23.622Z,14.48
2018-10-16T02:04:52.272Z,14.41
2018-10-16T02:07:27.061Z,14.38
2018-10-16T02:09:55.424Z,14.33
2018-10-16T02:12:23.873Z,14.22
2018-10-16T02:14:52.306Z,14.09
2018-10-16T02:17:20.740Z,14.05
2018-10-16T02:19:49.002Z,14.00
2018-10-16T02:22:17.552Z,14.01
2018-10-16T02:24:45.910Z,14.03
2018-10-16T02:27:14.294Z,14.09
2018-10-16T02:29:42.682Z,14.08
2018-10-16T02:32:10.971Z,14.04
2018-10-16T02:34:39.358Z,14.00
2018-10-16T02:37:08.528Z,14.02
2018-10-16T02:39:36.903Z,14.10
2018-10-16T02:42:05.624Z,14.13
2018-10-16T02:44:34.006Z,14.09
2018-10-16T02:47:02.426Z,14.06
2018-10-16T02:49:30.719Z,14.05
2018-10-16T02:51:59.022Z,13.95
2018-10-16T02:54:27.370Z,13.93
2018-10-16T02:56:55.650Z,13.87
2018-10-16T02:59:24.058Z,13.78
2018-10-16T03:01:52.422Z,13.72
2018-10-16T03:04:20.877Z,13.63
2018-10-16T03:06:49.359Z,13.61
2018-10-16T03:09:17.639Z,13.53
2018-10-16T03:11:46.035Z,13.35
2018-10-16T03:14:14.551Z,13.29
2018-10-16T03:16:42.862Z,13.19
2018-10-16T03:19:11.141Z,13.06
2018-10-16T03:21:39.555Z,12.87
2018-10-16T03:24:08.610Z,12.79
2018-10-16T03:26:37.251Z,12.83
2018-10-16T03:29:05.867Z,12.79
2018-10-16T03:31:34.169Z,12.81
2018-10-16T03:34:03.691Z,12.71
2018-10-16T03:36:32.092Z,12.59
2018-10-16T03:39:00.372Z,12.45
2018-10-16T03:41:28.693Z,12.43
2018-10-16T03:43:59.568Z,12.33
2018-10-16T03:46:28.125Z,12.26
2018-10-16T03:48:56.694Z,12.13
2018-10-16T03:51:26.235Z,12.04
2018-10-16T03:53:56.215Z,11.90
2018-10-16T03:56:25.059Z,11.85
2018-10-16T03:58:53.447Z,11.77
2018-10-16T04:01:22.477Z,11.68
2018-10-16T04:03:50.823Z,11.61
2018-10-16T04:06:19.363Z,11.48
2018-10-16T04:08:47.975Z,11.48
2018-10-16T04:11:16.293Z,11.45
2018-10-16T04:13:44.635Z,11.49
2018-10-16T04:16:12.927Z,11.61
2018-10-16T04:18:41.295Z,11.71
2018-10-16T04:21:10.511Z,11.69
2018-10-16T04:23:39.781Z,11.72
2018-10-16T04:26:08.507Z,11.78
2018-10-16T04:28:36.847Z,11.74
2018-10-16T04:31:05.461Z,11.69
2018-10-16T04:33:33.765Z,11.70
2018-10-16T04:36:02.183Z,11.73
2018-10-16T04:38:31.103Z,11.75
2018-10-16T04:40:59.406Z,11.84
2018-10-16T04:43:27.718Z,11.99
2018-10-16T04:45:56.160Z,12.10
2018-10-16T04:48:24.634Z,12.17
2018-10-16T04:50:52.949Z,12.20
2018-10-16T04:53:21.327Z,12.26
2018-10-16T04:55:49.706Z,12.32
2018-10-16T04:58:18.111Z,12.41
2018-10-16T05:00:46.409Z,12.46
2018-10-16T05:03:14.817Z,12.50
2018-10-16T05:05:43.149Z,12.55
2018-10-16T05:08:11.459Z,12.60
2018-10-16T05:10:39.764Z,12.66
2018-10-16T05:13:08.262Z,12.73
2018-10-16T05:15:36.629Z,12.78
2018-10-16T05:18:04.996Z,12.80
2018-10-16T05:20:33.305Z,12.82
2018-10-16T05:23:01.801Z,12.86
2018-10-16T05:25:30.921Z,12.92
2018-10-16T05:27:59.327Z,12.97
2018-10-16T05:30:27.957Z,13.05
2018-10-16T05:32:56.297Z,13.15
2018-10-16T05:35:25.220Z,13.24
2018-10-16T05:37:53.505Z,13.28
2018-10-16T05:40:21.843Z,13.29
2018-10-16T05:42:50.253Z,13.22
2018-10-16T05:45:19.273Z,13.16
2018-10-16T05:47:47.639Z,13.17
2018-10-16T05:50:16.017Z,13.20
2018-10-16T05:52:44.307Z,13.19
2018-10-16T05:55:12.647Z,13.20
2018-10-16T05:57:41.067Z,13.18
2018-10-16T06:00:20.509Z,13.23
2018-10-16T06:02:48.947Z,13.26
2018-10-16T06:05:17.323Z,13.30
2018-10-16T06:07:45.687Z,13.35
2018-10-16T06:10:14.429Z,13.45
2018-10-16T06:12:42.815Z,13.55
2018-10-16T06:15:11.915Z,13.59
2018-10-16T06:17:40.266Z,13.62
2018-10-16T06:20:11.642Z,13.61
2018-10-16T06:22:40.137Z,13.62
2018-10-16T06:25:09.448Z,13.66
2018-10-16T06:27:38.128Z,13.71
2018-10-16T06:30:06.901Z,13.75
2018-10-16T06:32:35.464Z,13.70
2018-10-16T06:35:03.902Z,13.57
2018-10-16T06:37:32.633Z,13.50
2018-10-16T06:40:01.208Z,13.48
2018-10-16T06:42:29.582Z,13.53
2018-10-16T06:44:57.978Z,13.59
2018-10-16T06:47:27.068Z,13.65
2018-10-16T06:49:55.156Z,13.62
2018-10-16T06:52:23.454Z,13.68
2018-10-16T06:54:52.102Z,13.76
2018-10-16T06:57:20.487Z,13.82
2018-10-16T06:59:48.841Z,13.78
2018-10-16T07:02:17.174Z,13.81
2018-10-16T07:04:46.034Z,13.87
2018-10-16T07:07:14.508Z,13.94
2018-10-16T07:09:42.745Z,14.02
2018-10-16T07:12:11.190Z,14.03
2018-10-16T07:14:39.578Z,14.06
2018-10-16T07:17:08.075Z,14.13
2018-10-16T07:19:36.392Z,14.24
2018-10-16T07:22:08.023Z,14.38
2018-10-16T07:24:36.366Z,14.48
2018-10-16T07:27:04.954Z,14.57
2018-10-16T07:29:33.284Z,14.69
2018-10-16T07:32:01.639Z,14.79
2018-10-16T07:34:29.983Z,14.89
2018-10-16T07:36:58.354Z,14.93
2018-10-16T07:39:26.862Z,14.97
2018-10-16T07:41:55.431Z,15.06
2018-10-16T07:44:23.986Z,15.13
2018-10-16T07:46:52.278Z,15.20
2018-10-16T07:49:20.667Z,15.30
2018-10-16T07:51:48.966Z,15.40
2018-10-16T07:54:17.405Z,15.50
2018-10-16T07:56:45.794Z,15.66
2018-10-16T07:59:14.177Z,15.74
2018-10-16T08:01:42.583Z,15.85
2018-10-16T08:04:10.946Z,15.97
2018-10-16T08:06:40.255Z,16.07
2018-10-16T08:09:12.602Z,16.18
2018-10-16T08:11:46.034Z,16.28
2018-10-16T08:14:15.576Z,16.38
2018-10-16T08:16:44.987Z,16.37
2018-10-16T08:19:13.775Z,16.36
2018-10-16T08:21:42.374Z,16.42
2018-10-16T08:24:10.723Z,16.50
2018-10-16T08:26:39.420Z,16.51
2018-10-16T08:29:08.601Z,16.54
2018-10-16T08:31:37.075Z,16.59
2018-10-16T08:34:06.029Z,16.61
2018-10-16T08:36:34.611Z,16.65
2018-10-16T08:39:10.106Z,16.66
2018-10-16T08:41:55.886Z,16.67
2018-10-16T08:44:39.498Z,16.73
2018-10-16T08:47:19.106Z,16.80
2018-10-16T08:49:59.301Z,16.85
2018-10-16T08:52:27.670Z,16.89
2018-10-16T08:54:56.085Z,16.93
2018-10-16T08:57:24.409Z,17.00
2018-10-16T08:59:52.780Z,17.07
2018-10-16T09:02:21.162Z,17.13
2018-10-16T09:04:49.515Z,17.19
2018-10-16T09:07:17.956Z,17.23
2018-10-16T09:09:46.283Z,17.26
2018-10-16T09:12:14.638Z,17.32
2018-10-16T09:14:43.101Z,17.39
2018-10-16T09:17:11.506Z,17.48
2018-10-16T09:19:39.898Z,17.57
2018-10-16T09:22:08.302Z,17.64
2018-10-16T09:24:36.685Z,17.74
2018-10-16T09:27:05.242Z,17.81
2018-10-16T09:29:33.746Z,17.88
2018-10-16T09:32:02.143Z,17.94
2018-10-16T09:34:30.416Z,17.99
2018-10-16T09:36:58.791Z,18.07
2018-10-16T09:39:27.139Z,18.11
2018-10-16T09:41:55.402Z,18.20
2018-10-16T09:44:23.998Z,18.32
2018-10-16T09:46:52.442Z,18.39
2018-10-16T09:49:20.835Z,18.48
2018-10-16T09:51:49.138Z,18.55
2018-10-16T09:54:17.422Z,18.63
2018-10-16T09:56:45.729Z,18.72
2018-10-16T09:59:14.103Z,18.79
2018-10-16T10:01:52.632Z,18.86
2018-10-16T10:04:21.171Z,18.92
2018-10-16T10:06:50.655Z,19.00
2018-10-16T10:09:19.043Z,19.05
2018-10-16T10:11:47.855Z,19.19
2018-10-16T10:14:16.311Z,19.27
2018-10-16T10:16:44.683Z,19.38
2018-10-16T10:19:13.018Z,19.51
2018-10-16T10:21:41.347Z,19.61
2018-10-16T10:24:09.735Z,19.73
2018-10-16T10:26:38.142Z,19.82
2018-10-16T10:29:06.466Z,19.91
2018-10-16T10:31:34.882Z,19.97
2018-10-16T10:34:03.390Z,20.03
2018-10-16T10:36:31.666Z,20.14
2018-10-16T10:39:00.022Z,20.22
2018-10-16T10:41:28.486Z,20.28
2018-10-16T10:43:56.862Z,20.37
2018-10-16T10:46:25.334Z,20.49
2018-10-16T10:48:53.941Z,20.58
2018-10-16T10:51:22.665Z,20.67
2018-10-16T10:53:50.770Z,20.75
2018-10-16T10:56:19.085Z,20.83
2018-10-16T10:58:47.437Z,20.91
2018-10-16T11:01:15.743Z,21.00
2018-10-16T11:03:44.208Z,21.06
2018-10-16T11:06:12.570Z,21.15
2018-10-16T11:08:41.018Z,21.21
2018-10-16T11:11:09.450Z,21.29
2018-10-16T11:13:37.798Z,21.35
2018-10-16T11:16:06.204Z,21.41
2018-10-16T11:18:34.777Z,21.50
2018-10-16T11:21:03.209Z,21.55
2018-10-16T11:23:31.522Z,21.64
2018-10-16T11:25:59.958Z,21.73
2018-10-16T11:28:28.394Z,21.86
2018-10-16T11:30:56.771Z,21.91
2018-10-16T11:33:25.102Z,22.00
2018-10-16T11:35:53.402Z,22.06
2018-10-16T11:38:21.794Z,22.15
2018-10-16T11:40:50.218Z,22.22
2018-10-16T11:43:18.574Z,22.26
2018-10-16T11:45:47.093Z,22.35
2018-10-16T11:48:15.720Z,22.47
2018-10-16T11:50:44.306Z,22.52
2018-10-16T11:53:12.593Z,22.64
2018-10-16T11:55:40.962Z,22.70
2018-10-16T11:58:09.362Z,22.70
2018-10-16T12:00:37.654Z,22.77
2018-10-16T12:03:06.048Z,22.86
2018-10-16T12:05:34.459Z,22.87
2018-10-16T12:08:02.878Z,22.89
2018-10-16T12:10:31.371Z,22.91
2018-10-16T12:12:59.767Z,22.94
2018-10-16T12:15:28.172Z,22.97
2018-10-16T12:18:13.911Z,23.03
2018-10-16T12:20:51.697Z,23.17
2018-10-16T12:23:20.170Z,23.26
2018-10-16T12:25:48.516Z,23.36
2018-10-16T12:28:16.910Z,23.44
2018-10-16T12:30:45.489Z,23.49
2018-10-16T12:33:13.878Z,23.50
2018-10-16T12:35:42.243Z,23.53
2018-10-16T12:38:10.546Z,23.57
2018-10-16T12:40:38.893Z,23.62
2018-10-16T12:43:07.221Z,23.67
2018-10-16T12:45:35.606Z,23.71
2018-10-16T12:48:03.984Z,23.74
2018-10-16T12:50:32.338Z,23.76
2018-10-16T12:53:00.839Z,23.80
2018-10-16T12:55:29.071Z,23.79
2018-10-16T12:57:57.461Z,23.81
2018-10-16T13:00:26.341Z,23.92
2018-10-16T13:02:54.714Z,24.04
2018-10-16T13:05:23.062Z,24.14
2018-10-16T13:07:51.400Z,24.18
2018-10-16T13:10:19.925Z,24.20
2018-10-16T13:12:48.407Z,24.21
2018-10-16T13:15:17.373Z,24.26
2018-10-16T13:17:45.716Z,24.27
2018-10-16T13:20:15.137Z,24.29
2018-10-16T13:22:45.169Z,24.33
2018-10-16T13:25:15.271Z,24.33
2018-10-16T13:27:43.810Z,24.36
2018-10-16T13:30:18.255Z,24.37
2018-10-16T13:32:47.423Z,24.41
2018-10-16T13:35:17.091Z,24.45
2018-10-16T13:37:46.260Z,24.48
2018-10-16T13:40:14.917Z,24.50
2018-10-16T13:42:43.387Z,24.55
2018-10-16T13:45:13.083Z,24.58
2018-10-16T13:47:41.417Z,24.59
2018-10-16T13:50:12.811Z,24.60
2018-10-16T13:52:41.447Z,24.61
2018-10-16T13:55:10.567Z,24.62
2018-10-16T13:57:38.916Z,24.62
2018-10-16T14:00:13.406Z,24.63
2018-10-16T14:02:42.663Z,24.65
2018-10-16T14:05:10.955Z,24.67
2018-10-16T14:07:39.499Z,24.66
2018-10-16T14:10:09.719Z,24.65
2018-10-16T14:12:38.895Z,24.65
2018-10-16T14:15:07.861Z,24.64
2018-10-16T14:17:36.449Z,24.65
2018-10-16T14:20:05.214Z,24.64
2018-10-16T14:22:33.754Z,24.63
2018-10-16T14:25:02.155Z,24.61
2018-10-16T14:27:30.540Z,24.59
2018-10-16T14:29:59.034Z,24.61
2018-10-16T14:32:27.322Z,24.61
2018-10-16T14:34:55.610Z,24.57
2018-10-16T14:37:24.136Z,24.59
2018-10-16T14:39:52.409Z,24.55
2018-10-16T14:42:20.842Z,24.50
2018-10-16T14:44:49.366Z,24.42
2018-10-16T14:47:17.837Z,24.32
2018-10-16T14:49:46.223Z,24.25
2018-10-16T14:52:14.880Z,24.17
2018-10-16T14:54:43.110Z,24.10
2018-10-16T14:57:11.458Z,24.01
2018-10-16T14:59:40.047Z,23.92
2018-10-16T15:02:08.391Z,23.86
2018-10-16T15:04:36.790Z,23.79
2018-10-16T15:07:05.334Z,23.73
2018-10-16T15:09:33.600Z,23.66
2018-10-16T15:12:01.922Z,23.60
2018-10-16T15:14:30.326Z,23.50
2018-10-16T15:16:58.605Z,23.38
2018-10-16T15:19:26.881Z,23.30
2018-10-16T15:21:55.307Z,23.23
2018-10-16T15:24:23.572Z,23.18
2018-10-16T15:26:52.310Z,23.10
2018-10-16T15:29:20.626Z,23.06
2018-10-16T15:31:48.961Z,22.98
2018-10-16T15:34:17.510Z,22.94
2018-10-16T15:36:45.838Z,22.93
2018-10-16T15:39:20.670Z,22.89
2018-10-16T15:41:49.164Z,22.84
2018-10-16T15:44:17.506Z,22.78
2018-10-16T15:46:45.910Z,22.73
2018-10-16T15:49:14.430Z,22.66
2018-10-16T15:51:50.106Z,22.59
2018-10-16T15:54:18.609Z,22.50
2018-10-16T15:56:46.958Z,22.41
2018-10-16T15:59:15.238Z,22.34
2018-10-16T16:01:43.707Z,22.28
2018-10-16T16:04:12.956Z,22.22
2018-10-16T16:06:41.375Z,22.13
2018-10-16T16:09:09.767Z,22.05
2018-10-16T16:11:38.055Z,21.97
2018-10-16T16:14:06.399Z,21.90
2018-10-16T16:16:34.766Z,21.75
2018-10-16T16:19:03.602Z,21.54
2018-10-16T16:21:31.985Z,21.35
2018-10-16T16:24:00.545Z,21.21
2018-10-16T16:26:28.798Z,20.98
2018-10-16T16:28:57.115Z,20.82
2018-10-16T16:31:25.779Z,20.71
2018-10-16T16:33:54.082Z,20.61
2018-10-16T16:36:22.511Z,20.54
2018-10-16T16:38:50.874Z,20.43
2018-10-16T16:41:19.227Z,20.25
2018-10-16T16:43:47.668Z,20.14
2018-10-16T16:46:16.033Z,20.06
2018-10-16T16:48:44.364Z,19.90
2018-10-16T16:51:12.740Z,19.78
2018-10-16T16:53:41.132Z,19.71
2018-10-16T16:56:09.602Z,19.64
2018-10-16T16:58:37.895Z,19.57
2018-10-16T17:01:06.251Z,19.48
2018-10-16T17:03:34.538Z,19.44
2018-10-16T17:06:02.924Z,19.39
2018-10-16T17:08:31.323Z,19.41
2018-10-16T17:10:59.631Z,19.52
2018-10-16T17:13:27.935Z,19.53
2018-10-16T17:15:56.280Z,19.51
2018-10-16T17:18:24.727Z,19.47
2018-10-16T17:20:53.155Z,19.45
2018-10-16T17:23:21.678Z,19.42
2018-10-16T17:25:50.462Z,19.38
2018-10-16T17:28:18.584Z,19.33
2018-10-16T17:30:47.045Z,19.26
2018-10-16T17:33:15.426Z,19.22
2018-10-16T17:35:43.626Z,19.12
2018-10-16T17:38:12.051Z,19.01
2018-10-16T17:40:40.432Z,18.92
2018-10-16T17:43:08.820Z,18.90
2018-10-16T17:45:37.260Z,18.89
2018-10-16T17:48:05.892Z,18.88
2018-10-16T17:50:34.132Z,18.91
2018-10-16T17:53:02.455Z,18.87
2018-10-16T17:55:30.838Z,18.82
2018-10-16T17:57:59.161Z,18.73
2018-10-16T18:00:27.559Z,18.60
2018-10-16T18:02:55.945Z,18.51
2018-10-16T18:05:24.393Z,18.41
2018-10-16T18:07:52.827Z,18.36
2018-10-16T18:10:21.121Z,18.30
2018-10-16T18:12:49.523Z,18.27
2018-10-16T18:15:17.944Z,18.21
2018-10-16T18:17:46.406Z,18.16
2018-10-16T18:20:15.925Z,18.15
2018-10-16T18:22:44.564Z,18.18
2018-10-16T18:25:13.093Z,18.13
2018-10-16T18:27:42.257Z,18.00
2018-10-16T18:30:11.155Z,17.85
2018-10-16T18:32:39.907Z,17.70
2018-10-16T18:35:08.209Z,17.44
2018-10-16T18:37:36.754Z,17.26
2018-10-16T18:40:06.695Z,17.19
2018-10-16T18:42:35.738Z,17.23
2018-10-16T18:45:05.273Z,17.35
2018-10-16T18:47:33.582Z,17.34
2018-10-16T18:50:01.972Z,17.25
2018-10-16T18:52:30.557Z,17.18
2018-10-16T18:54:58.865Z,17.15
2018-10-16T18:57:27.200Z,17.15
2018-10-16T18:59:55.747Z,16.90
2018-10-16T19:02:24.620Z,16.70
2018-10-16T19:04:52.972Z,16.54
2018-10-16T19:07:21.405Z,16.43
2018-10-16T19:09:49.706Z,16.46
2018-10-16T19:12:18.194Z,16.44
2018-10-16T19:14:46.766Z,16.49
2018-10-16T19:17:15.230Z,16.57
2018-10-16T19:19:43.624Z,16.58
2018-10-16T19:22:12.126Z,16.51
2018-10-16T19:24:40.662Z,16.32
2018-10-16T19:27:09.649Z,16.13
2018-10-16T19:29:38.079Z,16.01
2018-10-16T19:32:06.741Z,16.02
2018-10-16T19:34:35.751Z,16.01
2018-10-16T19:37:04.346Z,16.02
2018-10-16T19:39:33.322Z,15.99
2018-10-16T19:42:01.778Z,15.97
2018-10-16T19:44:30.290Z,15.95
2018-10-16T19:46:58.666Z,15.95
2018-10-16T19:49:27.311Z,15.96
2018-10-16T19:51:55.789Z,15.98
2018-10-16T19:54:24.243Z,15.97
2018-10-16T19:56:53.915Z,15.95
2018-10-16T19:59:22.248Z,16.00
2018-10-16T20:01:51.821Z,16.01
2018-10-16T20:04:20.419Z,15.99
2018-10-16T20:06:48.863Z,15.93
2018-10-16T20:09:17.420Z,15.96
2018-10-16T20:11:45.845Z,15.93
2018-10-16T20:14:15.026Z,15.98
2018-10-16T20:16:43.406Z,16.04
2018-10-16T20:19:11.784Z,16.11
2018-10-16T20:21:40.270Z,16.10
2018-10-16T20:24:08.629Z,16.12
2018-10-16T20:26:37.215Z,16.12
2018-10-16T20:29:05.847Z,16.12
2018-10-16T20:31:34.182Z,16.11
2018-10-16T20:34:02.569Z,16.05
2018-10-16T20:36:31.026Z,15.89
2018-10-16T20:38:59.385Z,15.63
2018-10-16T20:41:27.807Z,15.32
2018-10-16T20:43:56.370Z,15.18
2018-10-16T20:46:24.766Z,15.09
2018-10-16T20:48:53.225Z,15.08
2018-10-16T20:51:21.637Z,15.05
2018-10-16T20:53:50.852Z,15.02
2018-10-16T20:56:19.246Z,14.87
2018-10-16T20:58:47.849Z,14.69
2018-10-16T21:01:20.189Z,14.54
2018-10-16T21:03:49.067Z,14.43
2018-10-16T21:06:17.759Z,14.37
2018-10-16T21:08:45.918Z,14.43
2018-10-16T21:11:14.331Z,14.48
2018-10-16T21:13:42.673Z,14.59
2018-10-16T21:16:11.055Z,14.75
2018-10-16T21:18:39.941Z,14.89
2018-10-16T21:21:08.371Z,15.02
2018-10-16T21:23:36.669Z,15.11
2018-10-16T21:26:05.321Z,15.08
2018-10-16T21:28:33.757Z,14.97
2018-10-16T21:31:02.107Z,14.88
2018-10-16T21:33:30.570Z,14.76
2018-10-16T21:35:59.177Z,14.70
2018-10-16T21:38:27.585Z,14.64
2018-10-16T21:40:56.052Z,14.60
2018-10-16T21:43:24.601Z,14.58
2018-10-16T21:45:52.891Z,14.56
2018-10-16T21:48:21.301Z,14.56
2018-10-16T21:50:49.595Z,14.51
2018-10-16T21:53:17.950Z,14.52
2018-10-16T21:55:46.469Z,14.50
2018-10-16T21:58:14.801Z,14.48
2018-10-16T22:00:48.417Z,14.55
2018-10-16T22:03:16.796Z,14.49
2018-10-16T22:05:45.077Z,14.33
2018-10-16T22:08:14.352Z,14.27
2018-10-16T22:10:42.560Z,14.21
2018-10-16T22:13:11.801Z,14.14
2018-10-16T22:15:40.137Z,14.09
2018-10-16T22:18:08.553Z,13.97
2018-10-16T22:20:36.885Z,13.79
2018-10-16T22:23:05.677Z,13.82
2018-10-16T22:25:33.913Z,13.94
2018-10-16T22:28:02.309Z,14.08
2018-10-16T22:30:30.707Z,14.15
2018-10-16T22:32:59.056Z,14.18
2018-10-16T22:35:27.369Z,14.10
2018-10-16T22:37:55.741Z,14.05
2018-10-16T22:40:24.095Z,14.03
2018-10-16T22:42:52.517Z,13.98
2018-10-16T22:45:20.801Z,13.96
2018-10-16T22:47:49.089Z,13.77
2018-10-16T22:50:17.397Z,13.63
2018-10-16T22:52:45.821Z,13.67
2018-10-16T22:55:14.200Z,13.74
2018-10-16T22:57:42.529Z,13.74
2018-10-16T23:00:16.177Z,13.72
2018-10-16T23:02:45.382Z,13.67
2018-10-16T23:05:13.817Z,13.61
2018-10-16T23:07:42.669Z,13.54
2018-10-16T23:10:11.253Z,13.55
2018-10-16T23:12:39.565Z,13.59
2018-10-16T23:15:09.043Z,13.61
2018-10-16T23:17:37.332Z,13.57
2018-10-16T23:20:06.997Z,13.49
2018-10-16T23:22:35.548Z,13.45
2018-10-16T23:25:03.981Z,13.49
2018-10-16T23:27:32.412Z,13.50
2018-10-16T23:30:00.816Z,13.48
2018-10-16T23:32:29.201Z,13.42
2018-10-16T23:34:57.537Z,13.42
2018-10-16T23:37:26.117Z,13.44
2018-10-16T23:39:54.501Z,13.42
2018-10-16T23:42:22.937Z,13.34
2018-10-16T23:44:51.282Z,13.32
2018-10-16T23:47:19.764Z,13.36
2018-10-16T23:49:48.116Z,13.38
2018-10-16T23:52:16.448Z,13.35
2018-10-16T23:54:44.747Z,13.30
2018-10-16T23:57:13.144Z,13.22
2018-10-16T23:59:41.554Z,13.13
